LTAR

Details ICAO LTAR (VAS)
Name SIVAS
Region Turkey
Timezone Europe/Istanbul (UTC+3.0)
Plans Departing 46
Arriving 43
Stats Elevation 5,239 ft / 1,597 m (AMSL)
Location 39.814000° 36.903500°
Runways 1
Magnetic Variation 6.013° E
Sunrise 2018-12-18 04:49:38 UTC / 2018-12-18 07:49:38 Local
Sunset 2018-12-18 14:10:43 UTC / 2018-12-18 17:10:43 Local
Advertisement - Login to hide

Runways

ID Width Length Bearing (true/mag) Surface Threshold Overrun Markings Lighting
01 148 ft / 45 m 12,515 ft / 3,814 m 17.81° / 11.80° CONCRETE 0 ft / 0 m 0 ft / 0 m APP CALVERT REIL-OMNI
19 148 ft / 45 m 12,515 ft / 3,814 m 197.82° / 191.81° CONCRETE 0 ft / 0 m 0 ft / 0 m APP REIL-OMNI

Map

Weather


0- 5 10 15 20 25 30 35+ Temperature / °C

Clouds and Precipitation
Forecast for 2018-12-18 12:00 UTC. Updated 6 hours ago

Ground ~20,000 ft ~40,000 ft Winds

METAR

LTAR 181450Z 10007KT 9999 SCT008 BKN033 BKN090 01/00 Q1019 RMK RWY19 08010KT

TAF

Not found

Frequencies

Tower 121.50 MHz Sivas Tower
Approach 118.80 MHz Sivas Approach
Recorded 124.57 MHz ATIS
Ground 121.90 MHz Sivas Ground
Warning: Do not use this data for real-world aviation or navigation. No guarantee of current accuracy is given.